Wetterdaten: Dienstag, 06.11.2012
Datum Zeit Temperatur Luftfeuchte Regen Wind Richtung Richtung Taupunkt Windchill Windben
06.11.2012 00:00 3,6 C 81 % 0,0 l/m 15,9 km/h (3 Bft) S-SO 157 0,7 C -7,0 C 12,9 km/h (3 Bft)
06.11.2012 00:05 3,5 C 82 % 0,0 l/m 14,3 km/h (3 Bft) O-SO 112 0,7 C -6,2 C 10,9 km/h (2 Bft)
06.11.2012 00:10 3,5 C 82 % 0,0 l/m 14,5 km/h (3 Bft) O-SO 112 0,7 C -6,3 C 20,1 km/h (4 Bft)
06.11.2012 00:15 3,4 C 82 % 0,0 l/m 14,6 km/h (3 Bft) SO 135 0,6 C -6,5 C 15,8 km/h (3 Bft)
06.11.2012 00:20 3,4 C 83 % 0,0 l/m 13,8 km/h (3 Bft) O-SO 112 0,8 C -5,9 C 15,8 km/h (3 Bft)
06.11.2012 00:25 3,3 C 84 % 0,0 l/m 13,0 km/h (3 Bft) O-SO 112 0,9 C -5,1 C 9,7 km/h (2 Bft)
06.11.2012 00:30 3,2 C 84 % 0,0 l/m 11,1 km/h (2 Bft) O-SO 112 0,8 C -3,5 C 14,3 km/h (3 Bft)
06.11.2012 00:35 3,0 C 85 % 0,0 l/m 10,6 km/h (2 Bft) O-SO 112 0,7 C -3,0 C 12,9 km/h (3 Bft)
06.11.2012 00:40 2,9 C 86 % 0,0 l/m 9,5 km/h (2 Bft) NO 45 0,8 C -2,3 C 12,4 km/h (3 Bft)
06.11.2012 00:45 2,7 C 86 % 0,0 l/m 8,4 km/h (2 Bft) O-SO 112 0,6 C -1,2 C 5,5 km/h (1 Bft)
06.11.2012 00:50 2,6 C 87 % 0,0 l/m 8,7 km/h (2 Bft) O 90 0,7 C -1,8 C 12,7 km/h (3 Bft)
06.11.2012 00:55 2,5 C 87 % 0,0 l/m 7,7 km/h (2 Bft) O 90 0,6 C -0,6 C 6,4 km/h (2 Bft)
06.11.2012 01:00 2,5 C 87 % 0,0 l/m 7,2 km/h (2 Bft) S-SO 157 0,6 C -0,2 C 7,4 km/h (2 Bft)
06.11.2012 01:05 2,5 C 87 % 0,0 l/m 7,6 km/h (2 Bft) O-SO 112 0,6 C -0,8 C 15,4 km/h (3 Bft)
06.11.2012 01:10 2,9 C 85 % 0,0 l/m 10,0 km/h (2 Bft) O-SO 112 0,6 C -3,2 C 17,7 km/h (3 Bft)
06.11.2012 01:15 2,7 C 85 % 0,0 l/m 11,3 km/h (2 Bft) O-SO 112 0,4 C -4,5 C 19,6 km/h (3 Bft)
06.11.2012 01:20 3,0 C 82 % 0,0 l/m 11,7 km/h (2 Bft) O-SO 112 0,2 C -4,8 C 13,5 km/h (3 Bft)
06.11.2012 01:25 2,8 C 83 % 0,0 l/m 11,3 km/h (2 Bft) O-SO 112 0,2 C -4,3 C 8,9 km/h (2 Bft)
06.11.2012 01:30 2,9 C 82 % 0,0 l/m 11,1 km/h (2 Bft) O-SO 112 0,1 C -4,0 C 13,8 km/h (3 Bft)
06.11.2012 01:35 2,7 C 82 % 0,0 l/m 10,6 km/h (2 Bft) O-SO 112 -0,1 C -3,6 C 11,3 km/h (2 Bft)
06.11.2012 01:40 2,7 C 81 % 0,0 l/m 10,3 km/h (2 Bft) O-SO 112 -0,2 C -3,5 C 20,9 km/h (4 Bft)
06.11.2012 01:45 2,8 C 80 % 0,0 l/m 11,1 km/h (2 Bft) SO 135 -0,3 C -4,2 C 14,0 km/h (3 Bft)
06.11.2012 01:50 2,9 C 79 % 0,0 l/m 12,1 km/h (2 Bft) O 90 -0,4 C -5,0 C 26,1 km/h (4 Bft)
06.11.2012 01:55 3,0 C 77 % 0,0 l/m 12,4 km/h (3 Bft) O-SO 112 -0,6 C -5,2 C 15,4 km/h (3 Bft)
06.11.2012 02:00 3,2 C 75 % 0,0 l/m 14,0 km/h (3 Bft) O-SO 112 -0,8 C -6,5 C 28,8 km/h (4 Bft)
06.11.2012 02:05 3,2 C 74 % 0,0 l/m 15,3 km/h (3 Bft) O-SO 112 -1,0 C -7,2 C 27,2 km/h (4 Bft)
06.11.2012 02:10 3,0 C 74 % 0,0 l/m 15,1 km/h (3 Bft) O-SO 112 -1,2 C -7,0 C 25,3 km/h (4 Bft)
06.11.2012 02:15 2,9 C 76 % 0,0 l/m 13,7 km/h (3 Bft) O-SO 112 -0,9 C -6,0 C 17,2 km/h (3 Bft)
06.11.2012 02:20 2,6 C 77 % 0,0 l/m 11,4 km/h (2 Bft) O-SO 112 -1,0 C -4,3 C 14,0 km/h (3 Bft)
06.11.2012 02:25 2,6 C 77 % 0,0 l/m 10,8 km/h (2 Bft) O-SO 112 -1,0 C -3,9 C 13,7 km/h (3 Bft)
06.11.2012 02:30 2,7 C 77 % 0,0 l/m 10,8 km/h (2 Bft) SO 135 -0,9 C -3,9 C 13,8 km/h (3 Bft)
06.11.2012 02:35 2,5 C 77 % 0,0 l/m 10,1 km/h (2 Bft) O-SO 112 -1,1 C -3,3 C 12,9 km/h (3 Bft)
06.11.2012 02:40 2,5 C 77 % 0,0 l/m 9,3 km/h (2 Bft) O 90 -1,1 C -2,5 C 11,3 km/h (2 Bft)
06.11.2012 02:45 2,4 C 77 % 0,0 l/m 9,5 km/h (2 Bft) O-SO 112 -1,2 C -2,7 C 9,5 km/h (2 Bft)
06.11.2012 02:50 2,4 C 77 % 0,0 l/m 9,3 km/h (2 Bft) N-NW 337 -1,2 C -2,6 C 11,4 km/h (2 Bft)
06.11.2012 02:55 2,2 C 78 % 0,0 l/m 7,6 km/h (2 Bft) O-NO 67 -1,2 C -0,9 C 5,6 km/h (1 Bft)
06.11.2012 03:00 2,1 C 78 % 0,0 l/m 5,8 km/h (2 Bft) SO 135 -1,3 C 0,6 C 4,0 km/h (1 Bft)
06.11.2012 03:05 2,0 C 79 % 0,0 l/m 6,4 km/h (2 Bft) O-SO 112 -1,2 C 0,2 C 11,4 km/h (2 Bft)
06.11.2012 03:10 2,0 C 78 % 0,0 l/m 6,6 km/h (2 Bft) O-SO 112 -1,4 C 0,0 C 7,1 km/h (2 Bft)
06.11.2012 03:15 2,1 C 78 % 0,0 l/m 6,4 km/h (2 Bft) O 90 -1,3 C 0,1 C 9,2 km/h (2 Bft)
06.11.2012 03:20 2,2 C 78 % 0,0 l/m 6,8 km/h (2 Bft) O-SO 112 -1,2 C -0,3 C 6,6 km/h (2 Bft)
06.11.2012 03:25 2,3 C 77 % 0,0 l/m 7,2 km/h (2 Bft) O 90 -1,3 C -0,9 C 13,4 km/h (3 Bft)
06.11.2012 03:30 2,5 C 76 % 0,0 l/m 8,9 km/h (2 Bft) O 90 -1,3 C -2,5 C 9,3 km/h (2 Bft)
06.11.2012 03:35 2,4 C 77 % 0,0 l/m 9,7 km/h (2 Bft) S-SW 202 -1,2 C -3,3 C 8,5 km/h (2 Bft)
06.11.2012 03:40 2,5 C 76 % 0,0 l/m 9,3 km/h (2 Bft) O-SO 112 -1,3 C -2,9 C 12,2 km/h (2 Bft)
06.11.2012 03:45 2,7 C 76 % 0,0 l/m 10,1 km/h (2 Bft) O-SO 112 -1,1 C -3,5 C 17,1 km/h (3 Bft)
06.11.2012 03:50 2,4 C 76 % 0,0 l/m 10,1 km/h (2 Bft) O-SO 112 -1,4 C -3,4 C 11,6 km/h (2 Bft)
06.11.2012 03:55 2,4 C 77 % 0,0 l/m 9,5 km/h (2 Bft) O-SO 112 -1,2 C -2,9 C 10,5 km/h (2 Bft)
06.11.2012 04:00 2,5 C 76 % 0,0 l/m 8,5 km/h (2 Bft) O-SO 112 -1,3 C -1,8 C 15,0 km/h (3 Bft)
06.11.2012 04:05 2,5 C 76 % 0,0 l/m 8,9 km/h (2 Bft) NO 45 -1,3 C -2,2 C 10,3 km/h (2 Bft)
06.11.2012 04:10 2,5 C 76 % 0,0 l/m 8,2 km/h (2 Bft) O-SO 112 -1,3 C -1,4 C 8,9 km/h (2 Bft)
06.11.2012 04:15 2,4 C 76 % 0,0 l/m 7,6 km/h (2 Bft) O-SO 112 -1,4 C -0,8 C 10,8 km/h (2 Bft)
06.11.2012 04:20 2,3 C 77 % 0,0 l/m 7,9 km/h (2 Bft) O-SO 112 -1,3 C -1,2 C 8,2 km/h (2 Bft)
06.11.2012 04:25 2,4 C 77 % 0,0 l/m 8,4 km/h (2 Bft) SO 135 -1,2 C -1,8 C 9,3 km/h (2 Bft)
06.11.2012 04:30 2,3 C 77 % 0,0 l/m 7,9 km/h (2 Bft) O 90 -1,3 C -1,3 C 8,5 km/h (2 Bft)
06.11.2012 04:35 2,3 C 77 % 0,0 l/m 7,1 km/h (2 Bft) O-SO 112 -1,3 C -0,3 C 6,8 km/h (2 Bft)
06.11.2012 04:40 2,3 C 77 % 0,0 l/m 6,4 km/h (2 Bft) O-SO 112 -1,3 C 0,6 C 7,9 km/h (2 Bft)
06.11.2012 04:45 2,4 C 77 % 0,0 l/m 6,4 km/h (2 Bft) O-SO 112 -1,2 C 0,6 C 8,5 km/h (2 Bft)
06.11.2012 04:50 2,2 C 77 % 0,0 l/m 7,7 km/h (2 Bft) SO 135 -1,4 C -1,0 C 7,7 km/h (2 Bft)
06.11.2012 04:55 2,4 C 77 % 0,0 l/m 8,2 km/h (2 Bft) O-SO 112 -1,2 C -1,5 C 8,4 km/h (2 Bft)
06.11.2012 05:00 2,4 C 77 % 0,0 l/m 7,7 km/h (2 Bft) O 90 -1,2 C -0,9 C 7,6 km/h (2 Bft)
06.11.2012 05:05 2,4 C 77 % 0,0 l/m 8,5 km/h (2 Bft) O-SO 112 -1,2 C -1,8 C 13,8 km/h (3 Bft)
06.11.2012 05:10 2,4 C 77 % 0,0 l/m 8,2 km/h (2 Bft) O-SO 112 -1,2 C -1,4 C 10,8 km/h (2 Bft)
06.11.2012 05:15 2,4 C 77 % 0,0 l/m 8,4 km/h (2 Bft) O-SO 112 -1,2 C -1,6 C 8,9 km/h (2 Bft)
06.11.2012 05:20 2,3 C 77 % 0,0 l/m 7,9 km/h (2 Bft) O-SO 112 -1,3 C -1,1 C 7,6 km/h (2 Bft)
06.11.2012 05:25 2,7 C 77 % 0,0 l/m 8,5 km/h (2 Bft) SO 135 -0,9 C -1,7 C 16,4 km/h (3 Bft)
06.11.2012 05:30 2,7 C 77 % 0,0 l/m 9,7 km/h (2 Bft) SO 135 -0,9 C -3,0 C 13,0 km/h (3 Bft)
06.11.2012 05:35 2,8 C 77 % 0,0 l/m 9,5 km/h (2 Bft) O-SO 112 -0,8 C -2,6 C 16,3 km/h (3 Bft)
06.11.2012 05:40 2,9 C 76 % 0,0 l/m 9,8 km/h (2 Bft) O-SO 112 -0,9 C -2,8 C 13,0 km/h (3 Bft)
06.11.2012 05:45 2,8 C 76 % 0,0 l/m 9,7 km/h (2 Bft) O-SO 112 -1,0 C -2,5 C 10,6 km/h (2 Bft)
06.11.2012 05:50 2,9 C 77 % 0,0 l/m 10,6 km/h (2 Bft) SO 135 -0,7 C -3,6 C 17,1 km/h (3 Bft)
06.11.2012 05:55 3,0 C 77 % 0,0 l/m 11,4 km/h (2 Bft) SO 135 -0,6 C -4,3 C 10,3 km/h (2 Bft)
06.11.2012 06:00 3,0 C 78 % 0,0 l/m 10,0 km/h (2 Bft) O-SO 112 -0,5 C -2,8 C 6,0 km/h (2 Bft)
06.11.2012 06:05 3,0 C 79 % 0,0 l/m 9,5 km/h (2 Bft) S-SO 157 -0,3 C -2,3 C 15,3 km/h (3 Bft)
06.11.2012 06:10 3,0 C 80 % 0,0 l/m 9,2 km/h (2 Bft) O 90 -0,1 C -2,2 C 17,4 km/h (3 Bft)
06.11.2012 06:15 3,0 C 80 % 0,0 l/m 8,5 km/h (2 Bft) O-SO 112 -0,1 C -1,4 C 7,4 km/h (2 Bft)
06.11.2012 06:20 2,9 C 81 % 0,0 l/m 7,2 km/h (2 Bft) SO 135 -0,0 C -0,0 C 5,5 km/h (1 Bft)
06.11.2012 06:25 2,9 C 81 % 0,0 l/m 7,2 km/h (2 Bft) O-SO 112 -0,0 C -0,0 C 14,2 km/h (3 Bft)
06.11.2012 06:30 2,8 C 81 % 0,0 l/m 7,4 km/h (2 Bft) SO 135 -0,1 C -0,3 C 5,0 km/h (1 Bft)
06.11.2012 06:35 2,7 C 82 % 0,0 l/m 7,2 km/h (2 Bft) O 90 -0,1 C -0,2 C 9,0 km/h (2 Bft)
06.11.2012 06:40 2,4 C 83 % 0,0 l/m 6,8 km/h (2 Bft) SO 135 -0,2 C -0,2 C 6,0 km/h (2 Bft)
06.11.2012 06:45 2,3 C 84 % 0,0 l/m 6,3 km/h (2 Bft) O-SO 112 -0,1 C 0,3 C 13,4 km/h (3 Bft)
06.11.2012 06:50 1,9 C 86 % 0,0 l/m 6,1 km/h (2 Bft) O-SO 112 -0,2 C -0,1 C 4,8 km/h (1 Bft)
06.11.2012 06:55 1,6 C 87 % 0,0 l/m 6,8 km/h (2 Bft) O-NO 67 -0,3 C -1,2 C 11,7 km/h (2 Bft)
06.11.2012 07:00 1,4 C 88 % 0,0 l/m 5,8 km/h (2 Bft) O-SO 112 -0,4 C -0,8 C 6,4 km/h (2 Bft)
06.11.2012 07:05 1,2 C 88 % 0,7 l/m 4,7 km/h (1 Bft) O-SO 112 -0,6 C -0,6 C 4,2 km/h (1 Bft)
06.11.2012 07:10 1,1 C 89 % 0,0 l/m 4,0 km/h (1 Bft) SO 135 -0,5 C -0,6 C 4,5 km/h (1 Bft)
06.11.2012 07:15 1,0 C 90 % 0,0 l/m 3,2 km/h (1 Bft) O-SO 112 -0,5 C -0,2 C 5,3 km/h (1 Bft)
06.11.2012 07:20 0,9 C 91 % 0,0 l/m 2,4 km/h (1 Bft) SO 135 -0,4 C 0,3 C 2,6 km/h (1 Bft)
06.11.2012 07:25 0,7 C 92 % 0,0 l/m 2,1 km/h (1 Bft) O-SO 112 -0,4 C 0,2 C 4,8 km/h (1 Bft)
06.11.2012 07:30 0,7 C 92 % 0,0 l/m 2,1 km/h (1 Bft) NO 45 -0,4 C 0,1 C 0,0 km/h (0 Bft)
06.11.2012 07:35 0,7 C 93 % 0,0 l/m 2,6 km/h (1 Bft) O 90 -0,3 C -0,1 C 5,3 km/h (1 Bft)
06.11.2012 07:40 0,7 C 93 % 0,0 l/m 2,7 km/h (1 Bft) O 90 -0,3 C -0,2 C 6,6 km/h (2 Bft)
06.11.2012 07:45 0,6 C 93 % 0,7 l/m 3,1 km/h (1 Bft) SO 135 -0,4 C -0,4 C 3,5 km/h (1 Bft)
06.11.2012 07:50 0,6 C 93 % 0,0 l/m 2,7 km/h (1 Bft) O-SO 112 -0,4 C -0,3 C 1,6 km/h (1 Bft)
06.11.2012 07:55 0,6 C 94 % 0,0 l/m 2,4 km/h (1 Bft) O 90 -0,3 C 0,0 C 4,2 km/h (1 Bft)
06.11.2012 08:00 0,6 C 94 % 0,0 l/m 2,6 km/h (1 Bft) O-SO 112 -0,3 C -0,1 C 2,6 km/h (1 Bft)
06.11.2012 08:05 0,6 C 94 % 0,0 l/m 2,7 km/h (1 Bft) O 90 -0,3 C -0,2 C 2,4 km/h (1 Bft)
06.11.2012 08:10 0,7 C 95 % 0,0 l/m 2,3 km/h (1 Bft) NO 45 -0,0 C 0,1 C 2,6 km/h (1 Bft)
06.11.2012 08:15 0,6 C 95 % 0,0 l/m 2,1 km/h (1 Bft) O-SO 112 -0,1 C 0,1 C 3,2 km/h (1 Bft)
06.11.2012 08:20 0,6 C 95 % 0,0 l/m 1,8 km/h (1 Bft) N 360 -0,1 C 0,1 C 5,8 km/h (2 Bft)
06.11.2012 08:25 0,7 C 95 % 0,0 l/m 1,6 km/h (1 Bft) O-SO 112 -0,0 C 0,2 C 2,7 km/h (1 Bft)
06.11.2012 08:30 0,9 C 95 % 0,0 l/m 1,3 km/h (1 Bft) O-SO 112 0,2 C 0,3 C 0,0 km/h (0 Bft)
06.11.2012 08:35 0,9 C 95 % 0,0 l/m 0,8 km/h (0 Bft) O 90 0,2 C 0,3 C 2,1 km/h (1 Bft)
06.11.2012 08:40 0,7 C 95 % 0,7 l/m 0,5 km/h (0 Bft) O-SO 112 -0,0 C 0,3 C 0,0 km/h (0 Bft)
06.11.2012 08:45 0,7 C 95 % 0,0 l/m 1,0 km/h (0 Bft) N 360 -0,0 C 0,3 C 1,6 km/h (1 Bft)
06.11.2012 08:50 0,9 C 95 % 0,0 l/m 1,3 km/h (1 Bft) O 90 0,2 C 0,3 C 0,0 km/h (0 Bft)
06.11.2012 08:55 0,9 C 95 % 0,0 l/m 1,6 km/h (1 Bft) O-SO 112 0,2 C 0,4 C 3,4 km/h (1 Bft)
06.11.2012 09:00 1,0 C 95 % 0,0 l/m 1,0 km/h (0 Bft) N 360 0,3 C 0,5 C 0,0 km/h (0 Bft)
06.11.2012 09:05 1,1 C 95 % 0,0 l/m 0,2 km/h (0 Bft) S-SO 157 0,4 C 0,6 C 3,5 km/h (1 Bft)
06.11.2012 09:10 1,4 C 95 % 0,0 l/m 1,3 km/h (1 Bft) SO 135 0,7 C 0,9 C 2,6 km/h (1 Bft)
06.11.2012 09:15 1,6 C 95 % 0,0 l/m 2,3 km/h (1 Bft) O-SO 112 0,9 C 1,1 C 3,1 km/h (1 Bft)
06.11.2012 09:20 1,6 C 96 % 0,7 l/m 1,8 km/h (1 Bft) S-SO 157 1,0 C 1,5 C 2,7 km/h (1 Bft)
06.11.2012 09:25 1,9 C 96 % 0,0 l/m 1,4 km/h (1 Bft) SO 135 1,3 C 1,7 C 1,9 km/h (1 Bft)
06.11.2012 09:30 2,2 C 95 % 0,0 l/m 1,3 km/h (1 Bft) O-SO 112 1,5 C 2,1 C 2,4 km/h (1 Bft)
06.11.2012 09:35 2,2 C 95 % 0,7 l/m 1,4 km/h (1 Bft) SO 135 1,5 C 2,3 C 2,4 km/h (1 Bft)
06.11.2012 09:40 2,2 C 95 % 0,0 l/m 1,8 km/h (1 Bft) O-SO 112 1,5 C 2,5 C 2,9 km/h (1 Bft)
06.11.2012 09:45 2,2 C 95 % 0,0 l/m 1,6 km/h (1 Bft) S-SO 157 1,5 C 2,5 C 2,1 km/h (1 Bft)
06.11.2012 09:50 2,2 C 95 % 0,7 l/m 1,1 km/h (1 Bft) NO 45 1,5 C 2,6 C 0,0 km/h (0 Bft)
06.11.2012 09:55 2,1 C 95 % 0,0 l/m 0,5 km/h (0 Bft) NO 45 1,4 C 2,6 C 0,0 km/h (0 Bft)
06.11.2012 10:00 2,1 C 95 % 0,0 l/m 0,2 km/h (0 Bft) N-NO 22 1,4 C 2,5 C 0,0 km/h (0 Bft)
06.11.2012 10:05 2,1 C 95 % 0,0 l/m 0,2 km/h (0 Bft) N 360 1,4 C 2,5 C 0,0 km/h (0 Bft)
06.11.2012 10:10 2,1 C 95 % 0,0 l/m 0,0 km/h (0 Bft) N-NW 337 1,4 C 2,5 C 0,0 km/h (0 Bft)
06.11.2012 10:15 2,1 C 95 % 0,0 l/m 0,0 km/h (0 Bft) O 90 1,4 C 2,5 C 0,0 km/h (0 Bft)
06.11.2012 10:20 2,2 C 95 % 0,0 l/m 0,5 km/h (0 Bft) SO 135 1,5 C 2,4 C 0,0 km/h (0 Bft)
06.11.2012 10:25 2,2 C 95 % 0,0 l/m 0,5 km/h (0 Bft) S 180 1,5 C 2,3 C 0,0 km/h (0 Bft)
06.11.2012 10:30 2,2 C 95 % 0,0 l/m 1,0 km/h (0 Bft) S-SO 157 1,5 C 2,3 C 2,1 km/h (1 Bft)
06.11.2012 10:35 2,2 C 95 % 0,7 l/m 1,1 km/h (1 Bft) O-SO 112 1,5 C 2,2 C 0,0 km/h (0 Bft)
06.11.2012 10:40 2,1 C 95 % 0,0 l/m 1,4 km/h (1 Bft) O 90 1,4 C 2,1 C 4,7 km/h (1 Bft)
06.11.2012 10:45 2,1 C 95 % 0,0 l/m 1,8 km/h (1 Bft) O 90 1,4 C 2,1 C 4,0 km/h (1 Bft)
06.11.2012 10:50 2,3 C 95 % 0,0 l/m 1,9 km/h (1 Bft) O-SO 112 1,6 C 2,1 C 0,0 km/h (0 Bft)
06.11.2012 10:55 2,6 C 95 % 0,0 l/m 1,1 km/h (1 Bft) O 90 1,9 C 2,4 C 1,6 km/h (1 Bft)
06.11.2012 11:00 2,8 C 96 % 0,0 l/m 1,1 km/h (1 Bft) O 90 2,2 C 2,6 C 0,0 km/h (0 Bft)
06.11.2012 11:05 3,0 C 95 % 0,0 l/m 1,4 km/h (1 Bft) SO 135 2,3 C 2,9 C 2,1 km/h (1 Bft)
06.11.2012 11:10 2,9 C 95 % 0,0 l/m 2,1 km/h (1 Bft) O-SO 112 2,2 C 2,9 C 4,8 km/h (1 Bft)
06.11.2012 11:15 2,9 C 96 % 0,0 l/m 2,4 km/h (1 Bft) SO 135 2,3 C 2,9 C 4,7 km/h (1 Bft)
06.11.2012 11:20 2,8 C 96 % 0,0 l/m 2,7 km/h (1 Bft) O 90 2,2 C 2,8 C 3,5 km/h (1 Bft)
06.11.2012 11:25 2,7 C 95 % 0,0 l/m 2,7 km/h (1 Bft) O 90 2,0 C 2,7 C 5,1 km/h (1 Bft)
06.11.2012 11:30 2,8 C 95 % 0,7 l/m 2,9 km/h (1 Bft) S 180 2,1 C 2,6 C 5,3 km/h (1 Bft)
06.11.2012 11:35 3,0 C 95 % 0,0 l/m 3,4 km/h (1 Bft) O 90 2,3 C 2,4 C 8,4 km/h (2 Bft)
06.11.2012 11:40 3,1 C 95 % 0,0 l/m 4,2 km/h (1 Bft) O 90 2,4 C 1,9 C 1,8 km/h (1 Bft)
06.11.2012 11:45 3,0 C 94 % 0,0 l/m 4,2 km/h (1 Bft) NO 45 2,1 C 2,1 C 2,4 km/h (1 Bft)
06.11.2012 11:50 3,0 C 94 % 0,0 l/m 3,1 km/h (1 Bft) O 90 2,1 C 2,6 C 3,7 km/h (1 Bft)
06.11.2012 11:55 3,4 C 94 % 0,0 l/m 2,7 km/h (1 Bft) O-SO 112 2,5 C 2,9 C 4,8 km/h (1 Bft)
06.11.2012 12:00 3,5 C 94 % 0,0 l/m 3,2 km/h (1 Bft) O-NO 67 2,6 C 2,9 C 4,0 km/h (1 Bft)
06.11.2012 12:05 3,7 C 94 % 0,0 l/m 2,9 km/h (1 Bft) O-SO 112 2,8 C 3,2 C 4,5 km/h (1 Bft)
06.11.2012 12:10 4,2 C 94 % 0,0 l/m 2,9 km/h (1 Bft) SO 135 3,3 C 4,0 C 3,9 km/h (1 Bft)
06.11.2012 12:15 4,1 C 94 % 0,0 l/m 3,2 km/h (1 Bft) O-SO 112 3,2 C 3,9 C 5,1 km/h (1 Bft)
06.11.2012 12:20 3,9 C 94 % 0,0 l/m 3,2 km/h (1 Bft) SO 135 3,0 C 3,8 C 1,8 km/h (1 Bft)
06.11.2012 12:25 3,7 C 94 % 0,0 l/m 3,5 km/h (1 Bft) O-SO 112 2,8 C 3,4 C 5,3 km/h (1 Bft)
06.11.2012 12:30 3,6 C 94 % 0,0 l/m 4,7 km/h (1 Bft) O-SO 112 2,7 C 2,6 C 6,6 km/h (2 Bft)
06.11.2012 12:35 3,5 C 93 % 0,0 l/m 5,1 km/h (1 Bft) SO 135 2,5 C 2,3 C 9,0 km/h (2 Bft)
06.11.2012 12:40 3,6 C 93 % 0,0 l/m 6,4 km/h (2 Bft) SO 135 2,6 C 1,7 C 8,2 km/h (2 Bft)
06.11.2012 12:45 3,6 C 93 % 0,0 l/m 6,9 km/h (2 Bft) O-SO 112 2,6 C 1,1 C 13,5 km/h (3 Bft)
06.11.2012 12:50 3,4 C 93 % 0,0 l/m 7,6 km/h (2 Bft) O-SO 112 2,4 C -0,0 C 13,7 km/h (3 Bft)
06.11.2012 12:55 3,2 C 92 % 0,0 l/m 7,2 km/h (2 Bft) SO 135 2,0 C 0,3 C 6,8 km/h (2 Bft)
06.11.2012 13:00 3,1 C 92 % 0,0 l/m 6,0 km/h (2 Bft) SO 135 1,9 C 1,3 C 8,4 km/h (2 Bft)
06.11.2012 13:05 3,1 C 92 % 0,0 l/m 5,3 km/h (1 Bft) O-SO 112 1,9 C 1,6 C 4,2 km/h (1 Bft)
06.11.2012 13:10 3,2 C 92 % 0,0 l/m 3,9 km/h (1 Bft) NO 45 2,0 C 2,3 C 6,6 km/h (2 Bft)
06.11.2012 13:15 3,2 C 92 % 0,0 l/m 3,1 km/h (1 Bft) SO 135 2,0 C 2,8 C 4,8 km/h (1 Bft)
06.11.2012 13:20 3,2 C 93 % 0,0 l/m 4,0 km/h (1 Bft) O-SO 112 2,2 C 2,3 C 8,9 km/h (2 Bft)
06.11.2012 13:25 3,1 C 93 % 0,0 l/m 4,2 km/h (1 Bft) O-SO 112 2,1 C 2,2 C 5,1 km/h (1 Bft)
06.11.2012 13:30 3,1 C 93 % 0,0 l/m 4,0 km/h (1 Bft) O-SO 112 2,1 C 2,1 C 6,4 km/h (2 Bft)
06.11.2012 13:35 3,2 C 93 % 0,0 l/m 3,7 km/h (1 Bft) O-NO 67 2,2 C 2,4 C 4,5 km/h (1 Bft)
06.11.2012 13:40 3,2 C 93 % 0,0 l/m 3,1 km/h (1 Bft) O-SO 112 2,2 C 2,8 C 2,1 km/h (1 Bft)
06.11.2012 13:45 3,2 C 93 % 0,0 l/m 3,1 km/h (1 Bft) O 90 2,2 C 2,8 C 3,4 km/h (1 Bft)
06.11.2012 13:50 3,4 C 93 % 0,0 l/m 2,9 km/h (1 Bft) S 180 2,4 C 3,1 C 5,0 km/h (1 Bft)
06.11.2012 13:55 3,5 C 93 % 0,0 l/m 3,4 km/h (1 Bft) S-SO 157 2,5 C 2,8 C 3,9 km/h (1 Bft)
06.11.2012 14:00 3,7 C 93 % 0,0 l/m 3,4 km/h (1 Bft) SO 135 2,7 C 3,2 C 0,0 km/h (0 Bft)
06.11.2012 14:05 4,0 C 93 % 0,0 l/m 3,1 km/h (1 Bft) O 90 3,0 C 3,6 C 3,2 km/h (1 Bft)
06.11.2012 14:10 4,1 C 93 % 0,0 l/m 3,2 km/h (1 Bft) O-SO 112 3,1 C 4,1 C 2,3 km/h (1 Bft)
06.11.2012 14:15 4,1 C 93 % 0,0 l/m 3,1 km/h (1 Bft) O-SO 112 3,1 C 4,2 C 4,8 km/h (1 Bft)
06.11.2012 14:20 3,9 C 93 % 0,0 l/m 2,9 km/h (1 Bft) O-SO 112 2,9 C 4,5 C 5,3 km/h (1 Bft)
06.11.2012 14:25 4,1 C 92 % 0,0 l/m 3,7 km/h (1 Bft) NO 45 2,9 C 4,4 C 4,8 km/h (1 Bft)
06.11.2012 14:30 4,2 C 92 % 0,0 l/m 3,1 km/h (1 Bft) SO 135 3,0 C 5,2 C 0,0 km/h (0 Bft)
06.11.2012 14:35 4,3 C 92 % 0,0 l/m 2,7 km/h (1 Bft) SO 135 3,1 C 5,4 C 3,1 km/h (1 Bft)
06.11.2012 14:40 4,2 C 91 % 0,0 l/m 3,9 km/h (1 Bft) S 180 2,9 C 4,9 C 7,2 km/h (2 Bft)
06.11.2012 14:45 4,1 C 91 % 0,0 l/m 5,0 km/h (1 Bft) O-SO 112 2,8 C 4,2 C 6,1 km/h (2 Bft)
06.11.2012 14:50 4,1 C 91 % 0,0 l/m 6,1 km/h (2 Bft) O-SO 112 2,8 C 3,2 C 9,0 km/h (2 Bft)
06.11.2012 14:55 4,0 C 91 % 0,0 l/m 5,5 km/h (1 Bft) SO 135 2,7 C 3,2 C 4,0 km/h (1 Bft)
06.11.2012 15:00 4,1 C 91 % 0,0 l/m 4,2 km/h (1 Bft) NO 45 2,8 C 3,6 C 3,4 km/h (1 Bft)
06.11.2012 15:05 4,1 C 91 % 0,0 l/m 3,5 km/h (1 Bft) S-SO 157 2,8 C 3,9 C 6,8 km/h (2 Bft)
06.11.2012 15:10 4,1 C 91 % 0,0 l/m 3,9 km/h (1 Bft) O-SO 112 2,8 C 3,7 C 6,0 km/h (2 Bft)
06.11.2012 15:15 3,8 C 91 % 0,0 l/m 4,8 km/h (1 Bft) S 180 2,5 C 3,0 C 3,9 km/h (1 Bft)
06.11.2012 15:20 3,3 C 90 % 0,0 l/m 7,2 km/h (2 Bft) S 180 1,8 C 0,8 C 12,9 km/h (3 Bft)
06.11.2012 15:25 3,2 C 90 % 0,0 l/m 7,1 km/h (2 Bft) S 180 1,7 C 0,6 C 5,3 km/h (1 Bft)
06.11.2012 15:30 2,9 C 91 % 0,0 l/m 7,2 km/h (2 Bft) S-SO 157 1,6 C -0,0 C 10,1 km/h (2 Bft)
06.11.2012 15:35 2,9 C 91 % 0,0 l/m 6,1 km/h (2 Bft) SO 135 1,6 C 1,1 C 11,1 km/h (2 Bft)
06.11.2012 15:40 2,8 C 91 % 0,0 l/m 5,0 km/h (1 Bft) SW 225 1,5 C 1,4 C 12,1 km/h (2 Bft)
06.11.2012 15:45 2,6 C 91 % 0,0 l/m 6,0 km/h (2 Bft) S 180 1,3 C 0,8 C 7,6 km/h (2 Bft)
06.11.2012 15:50 2,4 C 92 % 0,0 l/m 6,3 km/h (2 Bft) SO 135 1,2 C 0,4 C 6,1 km/h (2 Bft)
06.11.2012 15:55 2,1 C 92 % 0,0 l/m 5,1 km/h (1 Bft) O-SO 112 0,9 C 0,6 C 6,8 km/h (2 Bft)
06.11.2012 16:00 1,6 C 92 % 0,0 l/m 5,0 km/h (1 Bft) S 180 0,4 C 0,0 C 5,0 km/h (1 Bft)
06.11.2012 16:05 1,6 C 92 % 0,0 l/m 5,5 km/h (1 Bft) SO 135 0,4 C -0,4 C 8,0 km/h (2 Bft)
06.11.2012 16:10 1,5 C 93 % 0,7 l/m 5,6 km/h (1 Bft) S-SO 157 0,5 C -0,6 C 6,1 km/h (2 Bft)
06.11.2012 16:15 1,5 C 93 % 0,0 l/m 6,0 km/h (2 Bft) SO 135 0,5 C -0,7 C 4,3 km/h (1 Bft)
06.11.2012 16:20 1,5 C 93 % 0,0 l/m 5,6 km/h (1 Bft) S-SO 157 0,5 C -0,7 C 11,3 km/h (2 Bft)
06.11.2012 16:25 1,5 C 93 % 0,0 l/m 5,5 km/h (1 Bft) O-SO 112 0,5 C -0,7 C 10,8 km/h (2 Bft)
06.11.2012 16:30 1,2 C 94 % 0,0 l/m 6,0 km/h (2 Bft) SO 135 0,3 C -1,1 C 3,7 km/h (1 Bft)
06.11.2012 16:35 1,1 C 94 % 0,0 l/m 5,0 km/h (1 Bft) O-SO 112 0,2 C -0,8 C 6,0 km/h (2 Bft)
06.11.2012 16:40 1,1 C 94 % 0,0 l/m 3,5 km/h (1 Bft) O 90 0,2 C 0,0 C 4,2 km/h (1 Bft)
06.11.2012 16:45 1,1 C 94 % 0,0 l/m 4,0 km/h (1 Bft) SO 135 0,2 C -0,3 C 6,6 km/h (2 Bft)
06.11.2012 16:50 1,2 C 94 % 0,0 l/m 4,0 km/h (1 Bft) O 90 0,3 C -0,3 C 4,0 km/h (1 Bft)
06.11.2012 16:55 1,2 C 94 % 0,0 l/m 4,2 km/h (1 Bft) O 90 0,3 C -0,4 C 7,2 km/h (2 Bft)
06.11.2012 17:00 1,2 C 95 % 0,0 l/m 4,7 km/h (1 Bft) N 360 0,5 C -0,6 C 3,5 km/h (1 Bft)
06.11.2012 17:05 1,1 C 95 % 0,0 l/m 3,5 km/h (1 Bft) O-SO 112 0,4 C 0,0 C 6,3 km/h (2 Bft)
06.11.2012 17:10 0,9 C 95 % 0,0 l/m 2,3 km/h (1 Bft) O-SO 112 0,2 C 0,5 C 2,4 km/h (1 Bft)
06.11.2012 17:15 0,8 C 95 % 0,0 l/m 2,6 km/h (1 Bft) O-SO 112 0,1 C 0,2 C 6,0 km/h (2 Bft)
06.11.2012 17:20 0,6 C 95 % 0,0 l/m 2,9 km/h (1 Bft) O 90 -0,1 C -0,3 C 5,0 km/h (1 Bft)
06.11.2012 17:25 0,6 C 95 % 0,0 l/m 3,1 km/h (1 Bft) O-SO 112 -0,1 C -0,5 C 4,8 km/h (1 Bft)
06.11.2012 17:30 0,6 C 95 % 0,0 l/m 3,1 km/h (1 Bft) O 90 -0,1 C -0,6 C 2,1 km/h (1 Bft)
06.11.2012 17:35 0,6 C 95 % 0,0 l/m 3,2 km/h (1 Bft) O 90 -0,1 C -0,7 C 6,1 km/h (2 Bft)
06.11.2012 17:40 0,5 C 95 % 0,0 l/m 2,7 km/h (1 Bft) N-NO 22 -0,2 C -0,4 C 2,3 km/h (1 Bft)
06.11.2012 17:45 0,4 C 95 % 0,0 l/m 2,6 km/h (1 Bft) O 90 -0,3 C -0,3 C 3,2 km/h (1 Bft)
06.11.2012 17:50 0,3 C 96 % 0,0 l/m 1,1 km/h (1 Bft) O-SO 112 -0,3 C -0,3 C 0,0 km/h (0 Bft)
06.11.2012 17:55 0,3 C 96 % 0,0 l/m 0,8 km/h (0 Bft) O-NO 67 -0,3 C -0,4 C 0,0 km/h (0 Bft)
06.11.2012 18:00 0,4 C 96 % 0,0 l/m 1,3 km/h (1 Bft) NO 45 -0,2 C -0,4 C 2,3 km/h (1 Bft)
06.11.2012 18:05 0,4 C 96 % 0,0 l/m 1,0 km/h (0 Bft) O-NO 67 -0,2 C -0,3 C 0,0 km/h (0 Bft)
06.11.2012 18:10 0,6 C 96 % 0,0 l/m 1,0 km/h (0 Bft) O 90 0,0 C -0,3 C 3,7 km/h (1 Bft)
06.11.2012 18:15 0,6 C 96 % 0,0 l/m 1,1 km/h (1 Bft) O 90 0,0 C -0,2 C 2,7 km/h (1 Bft)
06.11.2012 18:20 0,6 C 96 % 0,0 l/m 1,3 km/h (1 Bft) SO 135 0,0 C -0,2 C 1,9 km/h (1 Bft)
06.11.2012 18:25 0,5 C 96 % 0,0 l/m 1,0 km/h (0 Bft) N-NO 22 -0,1 C -0,2 C 0,0 km/h (0 Bft)
06.11.2012 18:30 0,3 C 96 % 0,0 l/m 0,3 km/h (0 Bft) SW 225 -0,3 C -0,4 C 0,0 km/h (0 Bft)
06.11.2012 18:35 0,4 C 96 % 0,0 l/m 0,2 km/h (0 Bft) N-NO 22 -0,2 C -0,3 C 0,0 km/h (0 Bft)
06.11.2012 18:40 0,5 C 96 % 0,0 l/m 0,3 km/h (0 Bft) N-NO 22 -0,1 C -0,2 C 0,0 km/h (0 Bft)
06.11.2012 18:45 0,7 C 96 % 0,0 l/m 0,3 km/h (0 Bft) SO 135 0,1 C -0,1 C 0,0 km/h (0 Bft)
06.11.2012 18:50 0,8 C 96 % 0,0 l/m 0,2 km/h (0 Bft) N 360 0,2 C 0,2 C 0,0 km/h (0 Bft)
06.11.2012 18:55 0,8 C 96 % 0,0 l/m 0,0 km/h (0 Bft) O-SO 112 0,2 C 0,3 C 0,0 km/h (0 Bft)
06.11.2012 19:00 0,8 C 97 % 0,0 l/m 0,0 km/h (0 Bft) N-NW 337 0,4 C 0,3 C 0,0 km/h (0 Bft)
06.11.2012 19:05 0,8 C 97 % 0,0 l/m 0,0 km/h (0 Bft) W-SW 247 0,4 C 0,3 C 0,0 km/h (0 Bft)
06.11.2012 19:10 0,8 C 97 % 0,0 l/m 0,0 km/h (0 Bft) N 360 0,4 C 0,3 C 0,0 km/h (0 Bft)
06.11.2012 19:15 0,8 C 97 % 0,0 l/m 0,5 km/h (0 Bft) O 90 0,4 C 0,3 C 2,3 km/h (1 Bft)
06.11.2012 19:20 0,8 C 97 % 0,0 l/m 1,6 km/h (1 Bft) O-SO 112 0,4 C 0,4 C 3,5 km/h (1 Bft)
06.11.2012 19:25 0,8 C 97 % 0,0 l/m 1,4 km/h (1 Bft) O-NO 67 0,4 C 0,4 C 0,0 km/h (0 Bft)
06.11.2012 19:30 0,7 C 97 % 0,0 l/m 0,5 km/h (0 Bft) N-NO 22 0,3 C 0,3 C 0,0 km/h (0 Bft)
06.11.2012 19:35 0,7 C 97 % 0,0 l/m 0,2 km/h (0 Bft) O-SO 112 0,3 C 0,3 C 0,0 km/h (0 Bft)
06.11.2012 19:40 0,5 C 97 % 0,0 l/m 0,2 km/h (0 Bft) N 360 0,1 C 0,1 C 0,0 km/h (0 Bft)
06.11.2012 19:45 0,4 C 97 % 0,0 l/m 0,0 km/h (0 Bft) O-SO 112 -0,0 C -0,1 C 0,0 km/h (0 Bft)
06.11.2012 19:50 0,3 C 97 % 0,0 l/m 0,2 km/h (0 Bft) N-NO 22 -0,1 C -0,5 C 0,0 km/h (0 Bft)
06.11.2012 19:55 0,1 C 97 % 0,0 l/m 0,2 km/h (0 Bft) W-NW 292 -0,3 C -0,7 C 0,0 km/h (0 Bft)
06.11.2012 20:00 -0,4 C 97 % 0,0 l/m 0,0 km/h (0 Bft) N 360 -0,8 C -1,1 C 0,0 km/h (0 Bft)
06.11.2012 20:05 -0,3 C 97 % 0,0 l/m 0,0 km/h (0 Bft) N 360 -0,7 C -1,3 C 0,0 km/h (0 Bft)
06.11.2012 20:10 -0,4 C 97 % 0,0 l/m 0,0 km/h (0 Bft) O-SO 112 -0,8 C -1,5 C 0,0 km/h (0 Bft)
06.11.2012 20:15 -0,5 C 96 % 0,0 l/m 0,0 km/h (0 Bft) N 360 -1,1 C -1,6 C 0,0 km/h (0 Bft)
06.11.2012 20:20 -0,6 C 96 % 0,0 l/m 0,5 km/h (0 Bft) N 360 -1,2 C -1,7 C 2,7 km/h (1 Bft)
06.11.2012 20:25 -0,5 C 96 % 0,0 l/m 0,8 km/h (0 Bft) N 360 -1,1 C -1,7 C 2,7 km/h (1 Bft)
06.11.2012 20:30 -0,6 C 96 % 0,0 l/m 0,5 km/h (0 Bft) N-NO 22 -1,2 C -1,7 C 0,0 km/h (0 Bft)
06.11.2012 20:35 -0,7 C 96 % 0,0 l/m 0,3 km/h (0 Bft) N 360 -1,3 C -1,8 C 0,0 km/h (0 Bft)
06.11.2012 20:40 -0,6 C 96 % 0,0 l/m 0,0 km/h (0 Bft) N-NW 337 -1,2 C -1,9 C 0,0 km/h (0 Bft)
06.11.2012 20:45 -0,6 C 97 % 0,0 l/m 0,2 km/h (0 Bft) N 360 -1,0 C -1,9 C 0,0 km/h (0 Bft)
06.11.2012 20:50 -0,5 C 97 % 0,0 l/m 0,3 km/h (0 Bft) N 360 -0,9 C -1,8 C 0,0 km/h (0 Bft)
06.11.2012 20:55 -0,5 C 97 % 0,0 l/m 0,8 km/h (0 Bft) N 360 -0,9 C -1,5 C 2,1 km/h (1 Bft)
06.11.2012 21:00 -0,5 C 97 % 0,0 l/m 1,4 km/h (1 Bft) N 360 -0,9 C -1,3 C 2,4 km/h (1 Bft)
06.11.2012 21:05 -0,6 C 97 % 0,0 l/m 1,0 km/h (0 Bft) N 360 -1,0 C -1,4 C 0,0 km/h (0 Bft)
06.11.2012 21:10 -1,2 C 96 % 0,0 l/m 0,2 km/h (0 Bft) N 360 -1,8 C -1,9 C 0,0 km/h (0 Bft)
06.11.2012 21:15 -1,3 C 96 % 0,0 l/m 0,0 km/h (0 Bft) N 360 -1,9 C -2,1 C 0,0 km/h (0 Bft)
06.11.2012 21:20 -1,3 C 96 % 0,0 l/m 0,0 km/h (0 Bft) N 360 -1,9 C -2,2 C 0,0 km/h (0 Bft)
06.11.2012 21:25 -1,4 C 96 % 0,0 l/m 0,0 km/h (0 Bft) N 360 -2,0 C -2,2 C 0,0 km/h (0 Bft)
06.11.2012 21:30 -1,7 C 96 % 0,0 l/m 0,0 km/h (0 Bft) N 360 -2,3 C -2,3 C 0,0 km/h (0 Bft)
06.11.2012 21:35 -1,6 C 96 % 0,0 l/m 0,0 km/h (0 Bft) N 360 -2,2 C -2,5 C 0,0 km/h (0 Bft)
06.11.2012 21:40 -1,8 C 96 % 0,0 l/m 0,0 km/h (0 Bft) N 360 -2,4 C -2,7 C 0,0 km/h (0 Bft)
06.11.2012 21:45 -1,7 C 96 % 0,0 l/m 0,0 km/h (0 Bft) N 360 -2,3 C -2,8 C 0,0 km/h (0 Bft)
06.11.2012 21:50 -1,8 C 96 % 0,0 l/m 0,0 km/h (0 Bft) N 360 -2,4 C -2,9 C 0,0 km/h (0 Bft)
06.11.2012 21:55 -2,0 C 96 % 0,0 l/m 0,0 km/h (0 Bft) N 360 -2,6 C -3,0 C 0,0 km/h (0 Bft)
06.11.2012 22:00 -1,9 C 96 % 0,0 l/m 0,0 km/h (0 Bft) N 360 -2,5 C -3,0 C 0,0 km/h (0 Bft)
06.11.2012 22:05 -1,8 C 96 % 0,0 l/m 0,0 km/h (0 Bft) N 360 -2,4 C -3,0 C 0,0 km/h (0 Bft)
06.11.2012 22:10 -2,0 C 96 % 0,0 l/m 0,0 km/h (0 Bft) N 360 -2,6 C -3,1 C 0,0 km/h (0 Bft)
06.11.2012 22:15 -2,1 C 96 % 0,0 l/m 0,0 km/h (0 Bft) N 360 -2,6 C -3,2 C 0,0 km/h (0 Bft)
06.11.2012 22:20 -1,1 C 97 % 0,0 l/m 0,0 km/h (0 Bft) N 360 -1,5 C -2,7 C 0,0 km/h (0 Bft)
06.11.2012 22:25 -1,2 C 97 % 0,0 l/m 0,2 km/h (0 Bft) N 360 -1,6 C -2,4 C 1,9 km/h (1 Bft)
06.11.2012 22:30 -1,1 C 97 % 0,0 l/m 0,3 km/h (0 Bft) N 360 -1,5 C -2,3 C 0,0 km/h (0 Bft)
06.11.2012 22:35 -1,3 C 97 % 0,0 l/m 0,5 km/h (0 Bft) N 360 -1,7 C -2,2 C 0,0 km/h (0 Bft)
06.11.2012 22:40 -1,5 C 97 % 0,0 l/m 0,3 km/h (0 Bft) N 360 -1,9 C -2,4 C 0,0 km/h (0 Bft)
06.11.2012 22:45 -1,2 C 97 % 0,0 l/m 0,3 km/h (0 Bft) N 360 -1,6 C -2,3 C 0,0 km/h (0 Bft)
06.11.2012 22:50 -1,4 C 97 % 0,0 l/m 0,6 km/h (0 Bft) N 360 -1,8 C -2,3 C 2,4 km/h (1 Bft)
06.11.2012 22:55 -1,2 C 97 % 0,0 l/m 0,6 km/h (0 Bft) N 360 -1,6 C -2,2 C 0,0 km/h (0 Bft)
06.11.2012 23:00 -1,2 C 97 % 0,0 l/m 1,1 km/h (1 Bft) N 360 -1,6 C -2,2 C 2,1 km/h (1 Bft)
06.11.2012 23:05 -1,2 C 97 % 0,0 l/m 1,0 km/h (0 Bft) N 360 -1,6 C -2,1 C 0,0 km/h (0 Bft)
06.11.2012 23:10 -1,3 C 97 % 0,0 l/m 0,3 km/h (0 Bft) N 360 -1,7 C -2,2 C 0,0 km/h (0 Bft)
06.11.2012 23:15 -1,2 C 97 % 0,0 l/m 0,2 km/h (0 Bft) N 360 -1,6 C -2,2 C 0,0 km/h (0 Bft)
06.11.2012 23:20 -1,6 C 97 % 0,0 l/m 0,2 km/h (0 Bft) N 360 -2,0 C -2,3 C 0,0 km/h (0 Bft)
06.11.2012 23:25 -1,4 C 97 % 0,0 l/m 0,2 km/h (0 Bft) N 360 -1,8 C -2,3 C 0,0 km/h (0 Bft)
06.11.2012 23:30 -1,5 C 97 % 0,0 l/m 0,2 km/h (0 Bft) N 360 -1,9 C -2,3 C 0,0 km/h (0 Bft)
06.11.2012 23:35 -1,3 C 97 % 0,0 l/m 0,5 km/h (0 Bft) N 360 -1,7 C -2,3 C 2,3 km/h (1 Bft)
06.11.2012 23:40 -1,3 C 97 % 0,0 l/m 0,6 km/h (0 Bft) N 360 -1,7 C -2,2 C 0,0 km/h (0 Bft)
06.11.2012 23:45 -1,4 C 97 % 0,0 l/m 0,6 km/h (0 Bft) N 360 -1,8 C -2,2 C 0,0 km/h (0 Bft)
06.11.2012 23:50 -1,4 C 97 % 0,0 l/m 0,5 km/h (0 Bft) N 360 -1,8 C -2,2 C 0,0 km/h (0 Bft)
06.11.2012 23:55 -1,5 C 97 % 0,0 l/m 0,5 km/h (0 Bft) N 360 -1,9 C -2,2 C 0,0 km/h (0 Bft)
_ Min-Zeit 22:15 02:10 - 22:20 - - 22:15 02:05 23:55
Minimum _ -2,1 C 74 % - 0,0 km/h (0 Bft) - - -2,6 C -7,2 C 0,0 km/h (0 Bft)
_ Max-Zeit 14:35 23:55 16:10 00:00 - - 12:10 14:35 02:00
Maximum _ 4,3 C 97 % 0,7 l/m 15,9 km/h
S-SO (3 Bft)
- - 3,3 C 5,4 C 28,8 km/h
O-SO (4 Bft)
Durchschnitt _ 1,7 C 90 % #6,2 l/m 4,3 km/h (1 Bft) O-SO - 0,2 C -0,4 C 5,6 km/h (1 Bft)